Time;durP1;ratioP1;P1;durP2;ratioP2;P2;SDS_P1;SDS_P2;PMS_P1;PMS_P2;Temp;Humidity;BMP_temperature;BMP_pressure;BME280_temperature;BME280_humidity;BME280_pressure;Samples;Min_cycle;Max_cycle;Signal;HPM_P1;HPM_P2
2021/10/24 00:03:19;;;;;;;11.10;8.13;;;;;;;9.11;50.80;99185.81;8285988;28;20202;-68
2021/10/24 00:07:22;;;;;;;12.13;9.10;;;;;;;9.12;51.02;99181.50;8286806;28;20259;-68
2021/10/24 00:11:25;;;;;;;12.43;8.60;;;;;;;9.12;50.41;99181.50;8286891;28;20321;-68
2021/10/24 00:15:29;;;;;;;12.53;8.47;;;;;;;9.04;50.09;99176.47;8286326;28;20237;-68
2021/10/24 00:19:33;;;;;;;12.73;9.03;;;;;;;8.99;50.22;99178.31;8286656;28;20210;-69
2021/10/24 00:23:37;;;;;;;13.67;8.83;;;;;;;8.83;50.76;99172.56;8286419;28;20205;-68
2021/10/24 00:27:40;;;;;;;14.27;8.97;;;;;;;8.86;50.39;99175.09;8286295;28;20532;-68
2021/10/24 00:31:44;;;;;;;14.17;9.27;;;;;;;8.73;51.01;99171.88;8286036;28;20201;-68
2021/10/24 00:35:50;;;;;;;15.17;9.37;;;;;;;8.76;50.58;99177.00;8285814;28;20236;-68
2021/10/24 00:39:53;;;;;;;38.13;20.07;;;;;;;8.87;50.56;99165.63;8285422;28;20206;-68
2021/10/24 00:44:21;;;;;;;24.50;14.20;;;;;;;8.76;50.07;99166.66;8285821;28;20484;-68
2021/10/24 00:48:26;;;;;;;21.83;13.10;;;;;;;8.72;50.37;99166.72;8285720;28;20205;-68
2021/10/24 00:52:29;;;;;;;15.33;9.87;;;;;;;8.66;49.90;99159.94;8285366;28;20201;-68
2021/10/24 00:56:32;;;;;;;13.20;9.23;;;;;;;8.58;50.37;99160.06;8285275;28;20529;-68
2021/10/24 01:00:35;;;;;;;15.33;9.83;;;;;;;8.58;49.99;99148.91;8285353;28;20202;-68
2021/10/24 01:04:40;;;;;;;17.20;9.70;;;;;;;8.45;49.87;99139.66;8284989;28;20226;-69
2021/10/24 01:08:43;;;;;;;15.13;9.90;;;;;;;8.61;49.64;99131.63;8284994;28;20248;-68
2021/10/24 01:12:47;;;;;;;16.23;11.60;;;;;;;8.39;50.03;99122.53;8284941;28;20216;-69
2021/10/24 01:16:51;;;;;;;27.80;12.47;;;;;;;8.50;50.27;99122.38;8284876;28;20236;-68
2021/10/24 01:20:56;;;;;;;17.50;11.80;;;;;;;8.54;50.13;99131.78;8284885;28;20202;-68
2021/10/24 01:24:59;;;;;;;20.70;12.10;;;;;;;8.37;50.18;99130.28;8284788;28;20269;-68
2021/10/24 01:29:02;;;;;;;17.43;11.20;;;;;;;8.41;49.74;99123.34;8284765;28;20235;-68
2021/10/24 01:33:05;;;;;;;15.47;9.97;;;;;;;8.40;49.66;99122.50;8284650;28;20202;-68
2021/10/24 01:37:09;;;;;;;20.50;10.23;;;;;;;8.32;49.78;99126.94;8284601;28;20229;-69
2021/10/24 01:41:12;;;;;;;20.07;9.93;;;;;;;8.26;49.93;99126.19;8284424;28;20213;-69
2021/10/24 01:45:17;;;;;;;16.70;9.40;;;;;;;8.27;49.96;99122.75;8284425;28;20201;-69
2021/10/24 01:49:20;;;;;;;19.63;9.47;;;;;;;8.32;49.46;99108.00;8284406;28;20209;-68
2021/10/24 01:53:28;;;;;;;25.97;10.87;;;;;;;8.23;49.39;99119.34;8287988;28;20206;-69
2021/10/24 01:57:31;;;;;;;30.07;11.97;;;;;;;8.18;49.66;99110.81;8290908;28;20293;-68
2021/10/24 02:01:33;;;;;;;27.50;12.17;;;;;;;8.15;49.67;99110.91;8290396;28;20503;-68
2021/10/24 02:05:37;;;;;;;32.97;13.30;;;;;;;8.11;50.12;99124.69;8290187;28;20233;-68
2021/10/24 02:09:41;;;;;;;28.83;11.73;;;;;;;8.18;50.09;99124.56;8290632;28;20202;-68
2021/10/24 02:13:44;;;;;;;17.67;8.73;;;;;;;8.21;50.30;99113.38;8290232;28;20202;-68
2021/10/24 02:17:47;;;;;;;12.13;6.83;;;;;;;8.16;50.82;99107.44;8290349;28;20229;-68
2021/10/24 02:21:50;;;;;;;9.67;6.07;;;;;;;8.02;50.95;99105.91;8290373;28;20201;-68
2021/10/24 02:25:54;;;;;;;15.97;7.53;;;;;;;8.11;50.83;99107.50;8289776;28;20206;-68
2021/10/24 02:29:57;;;;;;;15.93;7.63;;;;;;;8.04;49.85;99103.31;8289697;28;20202;-68
2021/10/24 02:34:03;;;;;;;11.00;6.57;;;;;;;8.06;50.43;99103.31;8289958;28;20217;-68
2021/10/24 02:38:06;;;;;;;11.73;6.10;;;;;;;7.94;50.08;99091.44;8289613;28;20527;-68
2021/10/24 02:42:10;;;;;;;10.53;6.17;;;;;;;8.08;50.63;99093.81;8289288;28;20202;-68
2021/10/24 02:46:13;;;;;;;11.13;6.37;;;;;;;7.94;50.69;99087.13;8289398;28;20224;-68
2021/10/24 02:50:17;;;;;;;8.77;6.20;;;;;;;7.96;50.59;99079.38;8289047;28;20209;-69
2021/10/24 02:54:20;;;;;;;12.40;6.27;;;;;;;7.92;50.12;99081.16;8289218;28;20383;-68
2021/10/24 02:58:25;;;;;;;9.07;5.40;;;;;;;7.86;50.52;99076.06;8288690;28;20229;-68
2021/10/24 03:02:28;;;;;;;6.70;5.20;;;;;;;7.99;50.29;99072.41;8288343;28;20216;-69
2021/10/24 03:06:31;;;;;;;8.43;5.10;;;;;;;7.84;50.60;99075.25;8288575;28;20249;-68
2021/10/24 03:10:34;;;;;;;7.57;4.60;;;;;;;7.92;50.24;99072.53;8289127;28;20202;-68
2021/10/24 03:14:38;;;;;;;9.93;5.57;;;;;;;7.83;49.70;99073.56;8288669;28;20207;-68
2021/10/24 03:18:41;;;;;;;7.93;5.10;;;;;;;7.77;49.72;99071.94;8288337;28;20240;-68
2021/10/24 03:22:44;;;;;;;7.17;5.27;;;;;;;7.77;49.44;99071.94;8288258;28;20201;-68
2021/10/24 03:26:47;;;;;;;11.23;5.03;;;;;;;7.64;50.29;99067.81;8288132;28;20391;-68
2021/10/24 03:30:51;;;;;;;5.73;4.57;;;;;;;7.71;50.29;99061.72;8287980;28;20213;-69
2021/10/24 03:34:54;;;;;;;6.77;5.30;;;;;;;7.71;50.20;99068.56;8288078;28;20206;-69
2021/10/24 03:38:57;;;;;;;7.03;5.07;;;;;;;7.62;50.38;99062.69;8287571;28;20236;-68
2021/10/24 03:43:00;;;;;;;7.87;4.43;;;;;;;7.69;50.27;99067.75;8287509;28;20213;-68
2021/10/24 03:47:05;;;;;;;6.03;4.77;;;;;;;7.67;50.02;99066.91;8287683;28;20298;-69
2021/10/24 03:51:08;;;;;;;7.93;5.10;;;;;;;7.67;50.23;99070.34;8287371;28;20225;-69
2021/10/24 03:55:12;;;;;;;6.33;5.10;;;;;;;7.64;49.79;99060.94;8287407;28;20213;-69
2021/10/24 03:59:15;;;;;;;5.33;4.73;;;;;;;7.65;50.03;99072.09;8286921;28;20229;-69
2021/10/24 04:03:19;;;;;;;7.33;4.83;;;;;;;7.56;49.40;99067.94;8286947;28;20220;-69
2021/10/24 04:07:22;;;;;;;8.07;5.57;;;;;;;7.49;49.58;99068.91;8286681;28;20328;-69
2021/10/24 04:11:25;;;;;;;10.20;7.13;;;;;;;7.37;49.99;99059.63;8286894;28;20202;-68
2021/10/24 04:15:28;;;;;;;11.23;7.10;;;;;;;7.41;49.81;99063.00;8285842;28;20201;-69
2021/10/24 04:19:32;;;;;;;8.70;6.90;;;;;;;7.39;49.58;99051.88;8286456;28;20272;-68
2021/10/24 04:23:35;;;;;;;10.77;7.53;;;;;;;7.37;49.65;99051.03;8286361;28;20214;-69
2021/10/24 04:27:39;;;;;;;16.53;12.13;;;;;;;7.29;49.50;99058.00;8286266;28;20364;-69
2021/10/24 04:31:42;;;;;;;12.07;7.57;;;;;;;7.38;49.41;99057.88;8286199;28;20518;-69
2021/10/24 04:35:47;;;;;;;10.53;7.80;;;;;;;7.30;49.34;99049.41;8285885;28;20209;-69
2021/10/24 04:39:49;;;;;;;10.63;6.50;;;;;;;7.21;49.65;99053.81;8285796;28;20221;-68
2021/10/24 04:43:52;;;;;;;9.23;7.17;;;;;;;7.23;49.68;99054.66;8285739;28;20208;-69
2021/10/24 04:47:55;;;;;;;12.43;7.03;;;;;;;7.15;49.44;99046.16;8285616;28;20213;-69
2021/10/24 04:52:00;;;;;;;8.77;6.33;;;;;;;7.24;49.42;99053.78;8285380;28;20205;-68
2021/10/24 04:56:03;;;;;;;7.63;6.13;;;;;;;7.21;49.61;99047.81;8285225;28;20209;-69
2021/10/24 05:00:09;;;;;;;8.93;6.30;;;;;;;7.29;49.51;99047.69;8284039;28;20225;-69
2021/10/24 05:04:12;;;;;;;9.03;6.27;;;;;;;7.18;49.73;99045.28;8281616;28;20225;-69
2021/10/24 05:08:16;;;;;;;8.40;6.30;;;;;;;7.26;49.42;99042.59;8281902;28;20233;-69
2021/10/24 05:12:19;;;;;;;8.63;5.80;;;;;;;7.12;49.35;99041.06;8284203;28;20399;-69
2021/10/24 05:16:22;;;;;;;7.97;6.83;;;;;;;7.15;49.58;99040.16;8284013;28;20201;-69
2021/10/24 05:20:25;;;;;;;7.40;6.30;;;;;;;7.12;49.79;99041.06;8283852;28;20250;-69
2021/10/24 05:24:29;;;;;;;8.77;6.10;;;;;;;7.07;49.57;99034.28;8283819;28;20217;-69
2021/10/24 05:28:33;;;;;;;8.27;5.47;;;;;;;7.07;49.24;99035.13;8281129;28;20225;-69
2021/10/24 05:32:36;;;;;;;7.77;5.30;;;;;;;7.01;49.56;99025.75;8284607;28;20202;-69
2021/10/24 05:36:38;;;;;;;6.37;5.23;;;;;;;7.10;49.53;99029.06;8283738;28;20386;-68
2021/10/24 05:40:43;;;;;;;8.47;5.50;;;;;;;7.05;49.07;99031.72;8283462;28;20222;-69
2021/10/24 05:44:46;;;;;;;8.03;5.70;;;;;;;7.02;49.12;99027.44;8281542;28;20194;-69
2021/10/24 05:48:50;;;;;;;12.33;5.43;;;;;;;6.92;49.12;99035.31;8280856;28;20217;-70
2021/10/24 05:52:53;;;;;;;6.83;5.30;;;;;;;6.95;48.99;99025.84;8283403;28;20201;-68
2021/10/24 05:56:57;;;;;;;7.70;5.00;;;;;;;6.97;48.97;99026.66;8283327;28;20194;-69
2021/10/24 06:01:00;;;;;;;9.97;5.30;;;;;;;6.94;48.91;99023.28;8283148;28;20201;-69
2021/10/24 06:05:04;;;;;;;9.90;5.90;;;;;;;6.94;49.27;99031.84;8283165;28;20217;-68
2021/10/24 06:09:07;;;;;;;7.23;5.43;;;;;;;6.96;49.41;99029.25;8283287;28;20240;-69
2021/10/24 06:13:11;;;;;;;9.37;5.63;;;;;;;6.92;49.57;99030.16;8280456;28;20206;-69
2021/10/24 06:17:14;;;;;;;7.53;5.43;;;;;;;6.97;49.61;99036.13;8283071;28;20204;-69
2021/10/24 06:21:17;;;;;;;8.07;5.70;;;;;;;7.01;49.37;99032.63;8284937;28;20268;-69
2021/10/24 06:25:20;;;;;;;7.77;5.50;;;;;;;7.13;48.95;99029.88;8285726;28;20247;-69
2021/10/24 06:29:24;;;;;;;8.17;6.23;;;;;;;7.17;49.39;99036.69;8281033;28;20198;-69
2021/10/24 06:33:27;;;;;;;9.50;5.87;;;;;;;7.23;49.36;99044.34;8282151;28;20194;-69
2021/10/24 06:37:30;;;;;;;9.60;5.83;;;;;;;7.22;49.75;99036.66;8282213;28;20226;-69
2021/10/24 06:41:34;;;;;;;10.20;6.50;;;;;;;7.13;50.22;99053.06;8288605;28;20392;-69
2021/10/24 06:45:38;;;;;;;8.80;6.10;;;;;;;7.20;50.44;99051.28;8288309;28;20452;-69
2021/10/24 06:49:41;;;;;;;11.80;6.77;;;;;;;7.40;50.52;99056.97;8286335;28;20198;-68
2021/10/24 06:53:44;;;;;;;10.40;5.80;;;;;;;7.37;50.74;99051.88;8288187;28;20198;-68
2021/10/24 06:57:48;;;;;;;7.90;6.00;;;;;;;7.36;50.77;99051.91;8286769;28;20225;-69
2021/10/24 07:01:52;;;;;;;8.60;5.93;;;;;;;7.48;50.97;99051.72;8288269;28;20282;-69
2021/10/24 07:05:55;;;;;;;11.33;5.80;;;;;;;7.55;51.85;99049.91;8287808;28;20234;-69
2021/10/24 07:09:58;;;;;;;13.50;6.43;;;;;;;7.85;51.24;99050.34;8286813;28;20208;-68
2021/10/24 07:14:01;;;;;;;11.53;6.27;;;;;;;7.90;51.74;99059.69;8288114;28;20220;-68
2021/10/24 07:18:05;;;;;;;10.00;7.27;;;;;;;7.95;52.24;99057.88;8292232;28;20240;-69
2021/10/24 07:22:08;;;;;;;10.03;5.50;;;;;;;7.97;51.91;99061.28;8286254;28;20419;-69
2021/10/24 07:26:11;;;;;;;11.53;5.80;;;;;;;8.18;51.63;99062.66;8282682;28;20205;-69
2021/10/24 07:30:14;;;;;;;9.37;6.17;;;;;;;8.49;50.98;99061.28;8287061;28;20395;-69
2021/10/24 07:34:19;;;;;;;12.70;5.93;;;;;;;8.79;50.87;99060.69;8287022;28;20206;-69
2021/10/24 07:38:22;;;;;;;9.70;5.90;;;;;;;9.09;49.32;99070.47;8293457;28;20221;-68
2021/10/24 07:42:26;;;;;;;10.47;5.17;;;;;;;9.58;48.30;99065.06;8286660;28;20201;-69
2021/10/24 07:46:29;;;;;;;9.77;5.97;;;;;;;10.04;47.97;99062.28;8286672;28;20198;-69
2021/10/24 07:50:33;;;;;;;12.40;6.57;;;;;;;10.61;46.74;99073.81;8282872;28;20202;-69
2021/10/24 07:54:36;;;;;;;10.93;6.07;;;;;;;10.95;44.91;99073.72;8287267;28;20210;-69
2021/10/24 07:58:39;;;;;;;8.47;4.90;;;;;;;11.06;45.01;99065.63;8286366;28;20455;-69
2021/10/24 08:02:42;;;;;;;9.40;4.50;;;;;;;11.09;43.91;99063.81;8285680;28;20206;-68
2021/10/24 08:06:47;;;;;;;7.97;4.60;;;;;;;11.13;44.06;99054.19;8285553;28;20234;-68
2021/10/24 08:10:50;;;;;;;8.83;3.50;;;;;;;11.83;42.23;99058.97;8285813;28;20197;-68
2021/10/24 08:14:53;;;;;;;7.20;3.53;;;;;;;12.16;42.12;99053.59;8285870;28;20197;-69
2021/10/24 08:18:55;;;;;;;6.77;3.60;;;;;;;12.32;41.83;99054.78;8285527;28;20248;-69
2021/10/24 08:23:01;;;;;;;5.83;3.47;;;;;;;13.23;40.14;99045.47;8285485;28;20201;-68
2021/10/24 08:27:07;;;;;;;9.00;3.87;;;;;;;13.45;39.50;99045.53;8283812;28;20194;-69
2021/10/24 08:31:12;;;;;;;6.83;3.47;;;;;;;13.98;39.55;99032.13;8285451;28;20205;-69
2021/10/24 08:35:15;;;;;;;6.80;4.17;;;;;;;14.83;37.30;99044.16;8285240;28;20229;-69
2021/10/24 08:39:19;;;;;;;12.10;6.33;;;;;;;14.79;36.17;99038.28;8285068;28;20218;-69
2021/10/24 08:43:28;;;;;;;9.80;5.37;;;;;;;13.63;38.20;99037.03;8282656;28;20508;-69
2021/10/24 08:47:31;;;;;;;6.00;3.30;;;;;;;14.21;36.90;99045.97;8284888;28;20485;-69
2021/10/24 08:51:34;;;;;;;23.83;14.47;;;;;;;13.98;37.59;99047.75;8284660;28;20205;-69
2021/10/24 08:55:39;;;;;;;11.83;6.07;;;;;;;14.74;37.76;99032.41;8284631;28;20380;-69
2021/10/24 08:59:42;;;;;;;25.87;16.00;;;;;;;14.86;37.10;99031.84;8282023;28;20217;-69
2021/10/24 09:04:03;;;;;;;6.53;3.67;;;;;;;14.46;36.21;99030.97;8284136;28;20205;-69
2021/10/24 09:08:06;;;;;;;7.10;3.53;;;;;;;15.01;36.15;99030.31;8282422;28;20234;-69
2021/10/24 09:12:12;;;;;;;9.30;3.40;;;;;;;15.45;34.97;99019.56;8284081;28;20194;-69
2021/10/24 09:16:15;;;;;;;6.33;3.37;;;;;;;15.95;34.71;99027.66;8284195;28;20216;-69
2021/10/24 09:20:26;;;;;;;6.63;3.10;;;;;;;16.30;33.45;99023.28;8283912;28;20226;-69
2021/10/24 09:24:29;;;;;;;6.77;3.40;;;;;;;15.95;32.75;99019.81;8282949;28;20209;-69
2021/10/24 09:28:33;;;;;;;6.17;3.10;;;;;;;16.91;32.07;99016.66;8284206;28;20404;-69
2021/10/24 09:32:47;;;;;;;6.40;3.60;;;;;;;15.50;34.34;99016.75;8281550;28;20197;-69
2021/10/24 09:36:52;;;;;;;7.80;4.20;;;;;;;16.96;32.98;99014.66;8284382;28;20198;-69
2021/10/24 09:40:58;;;;;;;9.30;3.60;;;;;;;17.48;32.01;99013.53;8284436;28;20229;-69
2021/10/24 09:45:05;;;;;;;7.23;3.30;;;;;;;17.17;32.45;99017.88;8284666;28;20515;-69
2021/10/24 09:49:18;;;;;;;5.67;4.03;;;;;;;16.09;33.86;99012.16;8284286;28;20213;-69
2021/10/24 09:53:22;;;;;;;8.00;3.60;;;;;;;16.48;33.37;99003.19;8284234;28;20217;-69
2021/10/24 09:57:25;;;;;;;7.47;3.70;;;;;;;16.80;32.62;99009.34;8284244;28;20501;-69
2021/10/24 10:01:30;;;;;;;8.10;3.43;;;;;;;17.31;33.00;99009.25;8283810;28;20229;-69
2021/10/24 10:05:35;;;;;;;7.97;3.90;;;;;;;16.81;33.54;99005.81;8283848;28;20245;-69
2021/10/24 10:09:37;;;;;;;9.00;4.00;;;;;;;16.67;32.74;99000.44;8284054;28;20212;-69
2021/10/24 10:13:42;;;;;;;6.70;3.40;;;;;;;17.27;32.67;98993.78;8286375;28;20492;-69
2021/10/24 10:18:00;;;;;;;6.00;3.13;;;;;;;17.62;31.99;98988.34;8289596;28;20210;-69
2021/10/24 10:22:29;;;;;;;8.13;3.20;;;;;;;16.57;32.04;98991.41;8287450;28;20226;-69
2021/10/24 10:26:37;;;;;;;8.03;3.50;;;;;;;16.82;32.36;98985.75;8288622;28;20194;-69
2021/10/24 10:30:42;;;;;;;6.70;3.33;;;;;;;17.32;31.97;98983.91;8286992;28;20206;-69
2021/10/24 10:35:05;;;;;;;5.47;2.63;;;;;;;17.71;31.56;98972.94;8288825;28;20281;-69
2021/10/24 10:39:38;;;;;;;8.53;3.33;;;;;;;16.20;32.20;98973.25;8287218;28;20228;-69
2021/10/24 10:44:08;;;;;;;10.63;2.67;;;;;;;15.84;31.69;98970.75;8287343;28;20194;-69
2021/10/24 10:48:31;;;;;;;6.80;2.30;;;;;;;15.60;32.55;98962.31;8287991;28;20350;-69
2021/10/24 10:52:41;;;;;;;5.90;2.30;;;;;;;16.19;31.36;98958.50;8289105;28;20209;-69
2021/10/24 10:56:46;;;;;;;6.90;2.47;;;;;;;15.92;31.70;98965.13;8289104;28;20203;-69
2021/10/24 11:00:55;;;;;;;8.63;2.70;;;;;;;16.20;35.80;98954.97;8288450;28;20233;-68
2021/10/24 11:05:00;;;;;;;6.33;2.40;;;;;;;16.65;33.06;98957.00;8256365;28;20294;-68
2021/10/24 11:09:06;;;;;;;6.37;2.23;;;;;;;15.93;31.74;98957.19;8256358;28;20229;-68
2021/10/24 11:13:37;;;;;;;4.17;2.17;;;;;;;15.66;32.38;98942.91;8256523;28;20241;-68
2021/10/24 11:17:43;;;;;;;6.03;2.33;;;;;;;15.80;31.86;98943.94;8256111;28;20318;-68
2021/10/24 11:21:46;;;;;;;5.77;2.33;;;;;;;15.66;32.67;98935.91;8256241;28;20241;-67
2021/10/24 11:25:53;;;;;;;4.30;2.33;;;;;;;15.61;32.14;98932.66;8255979;28;20512;-68
2021/10/24 11:29:58;;;;;;;5.03;2.57;;;;;;;15.67;32.63;98928.91;8272415;28;20201;-68
2021/10/24 11:34:01;;;;;;;6.43;2.57;;;;;;;16.14;33.24;98923.91;8288053;28;20212;-68
2021/10/24 11:38:09;;;;;;;6.50;2.50;;;;;;;15.87;32.07;98914.88;8287853;28;20374;-68
2021/10/24 11:42:16;;;;;;;9.30;2.73;;;;;;;15.96;31.84;98907.41;8287804;28;20290;-68
2021/10/24 11:46:19;;;;;;;5.37;2.60;;;;;;;16.13;32.51;98905.72;8287819;28;20210;-68
2021/10/24 11:50:49;;;;;;;5.27;2.47;;;;;;;16.07;31.61;98906.88;8287640;28;20209;-68
2021/10/24 11:55:06;;;;;;;5.80;2.50;;;;;;;16.41;30.92;98903.34;8286607;28;20292;-68
2021/10/24 11:59:18;;;;;;;4.43;2.17;;;;;;;16.18;31.85;98904.56;8286853;28;20194;-66
2021/10/24 12:03:26;;;;;;;5.20;2.80;;;;;;;16.07;32.24;98903.41;8284788;28;20198;-67
2021/10/24 12:07:29;;;;;;;5.30;2.30;;;;;;;16.58;31.75;98897.19;8285935;28;20238;-67
2021/10/24 12:11:45;;;;;;;5.90;2.60;;;;;;;16.53;31.37;98895.75;8283595;28;20219;-67
2021/10/24 12:15:49;;;;;;;4.17;2.33;;;;;;;16.72;31.42;98885.97;8285845;28;20208;-67
2021/10/24 12:20:07;;;;;;;5.17;2.23;;;;;;;16.09;31.07;98885.88;8285421;28;20233;-66
2021/10/24 12:24:18;;;;;;;6.53;1.93;;;;;;;16.58;31.29;98883.25;8286455;28;20217;-67
2021/10/24 12:28:24;;;;;;;5.87;2.13;;;;;;;16.06;31.12;98880.81;8286143;28;20213;-67
2021/10/24 12:32:29;;;;;;;5.10;2.37;;;;;;;16.40;30.91;98872.03;8286424;28;20216;-67
2021/10/24 12:36:34;;;;;;;6.70;2.40;;;;;;;16.15;30.59;98860.28;8284723;28;20378;-68
2021/10/24 12:40:37;;;;;;;4.57;2.17;;;;;;;16.06;31.11;98866.00;8285828;28;20531;-69
2021/10/24 12:44:41;;;;;;;7.17;2.40;;;;;;;15.97;31.08;98864.72;8285782;28;20202;-68
2021/10/24 12:48:46;;;;;;;6.37;2.83;;;;;;;16.27;30.78;98857.94;8286223;28;20202;-69
2021/10/24 12:53:02;;;;;;;5.33;2.47;;;;;;;16.25;30.54;98844.94;8285721;28;20213;-68
2021/10/24 12:57:07;;;;;;;5.70;2.23;;;;;;;16.27;30.28;98837.88;8285524;28;20205;-68
2021/10/24 13:01:20;;;;;;;5.23;2.47;;;;;;;16.50;30.00;98833.16;8285189;28;20225;-68
2021/10/24 13:05:25;;;;;;;5.53;2.80;;;;;;;16.03;30.03;98826.97;8284948;28;20225;-68
2021/10/24 13:09:31;;;;;;;8.17;2.40;;;;;;;16.92;29.41;98819.50;8284967;28;20209;-68
2021/10/24 13:13:33;;;;;;;4.63;2.60;;;;;;;16.94;29.65;98815.00;8285159;28;20201;-68
2021/10/24 13:17:37;;;;;;;5.20;3.27;;;;;;;15.79;31.29;98818.66;8285051;28;20205;-68
2021/10/24 13:26:02;;;;;;;4.63;2.30;;;;;;;16.89;30.51;98803.16;8284911;28;20518;-68
2021/10/24 13:30:05;;;;;;;4.37;2.20;;;;;;;16.90;29.98;98792.56;8284623;28;20205;-68
2021/10/24 13:34:08;;;;;;;4.93;2.20;;;;;;;17.27;29.50;98797.44;8284749;28;20405;-68
2021/10/24 13:38:13;;;;;;;6.40;2.10;;;;;;;17.63;29.51;98788.34;8284451;28;20208;-69
2021/10/24 13:42:18;;;;;;;5.67;2.63;;;;;;;17.55;28.91;98784.44;8284239;28;20295;-68
2021/10/24 13:46:21;;;;;;;6.77;2.23;;;;;;;17.29;29.19;98779.91;8284540;28;20212;-68
2021/10/24 13:50:25;;;;;;;4.13;2.13;;;;;;;17.29;29.14;98769.44;8291105;28;20205;-68
2021/10/24 13:54:29;;;;;;;5.77;1.90;;;;;;;17.46;28.95;98776.25;8291078;28;20208;-68
2021/10/24 13:58:32;;;;;;;3.90;1.70;;;;;;;17.26;29.21;98775.69;8290913;28;20366;-68
2021/10/24 14:02:35;;;;;;;3.50;2.00;;;;;;;17.07;29.39;98769.84;8290526;28;20244;-69
2021/10/24 14:06:38;;;;;;;6.30;2.57;;;;;;;17.16;29.58;98774.53;8290079;28;20241;-68
2021/10/24 14:10:49;;;;;;;4.20;1.60;;;;;;;17.32;29.30;98770.06;8290531;28;20213;-68
2021/10/24 14:14:52;;;;;;;6.20;2.10;;;;;;;17.33;29.67;98760.47;8289612;28;20202;-68
2021/10/24 14:18:55;;;;;;;3.20;1.67;;;;;;;16.89;29.95;98756.91;8290296;28;20202;-68
2021/10/24 14:22:58;;;;;;;4.10;1.83;;;;;;;17.18;29.67;98756.97;8289876;28;20230;-68
2021/10/24 14:27:02;;;;;;;5.83;1.80;;;;;;;16.90;29.39;98747.28;8290022;28;20260;-68
2021/10/24 14:31:05;;;;;;;3.87;1.87;;;;;;;16.84;29.74;98747.63;8289879;28;20206;-68
2021/10/24 14:35:09;;;;;;;2.57;1.70;;;;;;;16.88;29.38;98742.13;8290024;28;20201;-68
2021/10/24 14:39:13;;;;;;;3.13;1.70;;;;;;;16.68;29.90;98738.00;8289828;28;20201;-68
2021/10/24 14:43:17;;;;;;;3.93;1.90;;;;;;;16.57;30.55;98738.63;8289569;28;20528;-68
2021/10/24 14:47:20;;;;;;;3.77;2.17;;;;;;;16.06;31.03;98735.34;8289525;28;20408;-67
2021/10/24 14:51:23;;;;;;;4.10;1.70;;;;;;;15.96;31.38;98735.00;8289162;28;20215;-68
2021/10/24 14:55:26;;;;;;;2.87;1.80;;;;;;;16.01;31.37;98712.09;8289358;28;20230;-68
2021/10/24 14:59:30;;;;;;;3.23;1.63;;;;;;;15.94;31.34;98723.81;8288192;28;20512;-68
2021/10/24 15:03:33;;;;;;;5.63;2.47;;;;;;;15.86;32.92;98723.38;8288823;28;20230;-67
2021/10/24 15:07:37;;;;;;;3.93;2.23;;;;;;;15.73;32.42;98717.97;8288659;28;20426;-67
2021/10/24 15:11:40;;;;;;;4.23;2.20;;;;;;;15.28;33.03;98715.97;8288830;28;20209;-67
2021/10/24 15:15:49;;;;;;;4.53;2.60;;;;;;;15.27;33.17;98709.94;8288493;28;20201;-67
2021/10/24 15:24:13;;;;;;;4.33;2.40;;;;;;;15.20;33.73;98703.31;8287835;28;20254;-67
2021/10/24 15:28:16;;;;;;;5.90;3.00;;;;;;;15.08;34.16;98699.59;8288017;28;20205;-67
2021/10/24 15:32:20;;;;;;;6.43;2.73;;;;;;;15.03;34.63;98697.19;8287949;28;20211;-67
2021/10/24 15:36:23;;;;;;;5.47;2.10;;;;;;;14.85;35.09;98691.16;8287675;28;20209;-67
2021/10/24 15:40:26;;;;;;;4.63;2.40;;;;;;;14.77;35.60;98690.69;8287842;28;20315;-67
2021/10/24 15:44:29;;;;;;;3.93;2.10;;;;;;;14.77;36.21;98693.28;8287534;28;20197;-68
2021/10/24 15:48:33;;;;;;;5.57;2.20;;;;;;;14.72;36.60;98691.88;8287790;28;20201;-68
2021/10/24 15:52:39;;;;;;;5.80;2.80;;;;;;;14.82;36.69;98690.47;8287467;28;20201;-68
2021/10/24 15:56:42;;;;;;;4.23;2.20;;;;;;;14.62;37.41;98686.22;8287617;28;20206;-68
2021/10/24 16:00:46;;;;;;;6.90;5.10;;;;;;;14.51;37.33;98675.44;8286461;28;20523;-68
2021/10/24 16:04:50;;;;;;;6.00;3.90;;;;;;;14.59;37.46;98678.59;8285717;28;20221;-68
2021/10/24 16:08:54;;;;;;;5.80;2.80;;;;;;;14.59;37.92;98678.59;8285491;28;20221;-68
2021/10/24 16:12:59;;;;;;;9.57;3.30;;;;;;;14.38;38.10;98673.47;8283515;28;20236;-68
2021/10/24 16:17:03;;;;;;;7.90;4.87;;;;;;;14.42;38.40;98672.38;8286184;28;20526;-68
2021/10/24 16:21:07;;;;;;;6.63;5.23;;;;;;;14.24;38.30;98681.94;8286711;28;20229;-68
2021/10/24 16:25:10;;;;;;;7.70;3.40;;;;;;;14.17;38.63;98683.16;8286506;28;20205;-67
2021/10/24 16:29:13;;;;;;;5.17;2.53;;;;;;;14.14;38.83;98679.84;8286480;28;20232;-68
2021/10/24 16:33:16;;;;;;;7.90;2.33;;;;;;;13.86;39.81;98684.59;8286190;28;20217;-67
2021/10/24 16:37:21;;;;;;;4.37;2.80;;;;;;;13.78;40.38;98672.84;8286267;28;20373;-67
2021/10/24 16:41:24;;;;;;;9.27;3.87;;;;;;;13.73;40.46;98672.19;8285886;28;20237;-67
2021/10/24 16:45:27;;;;;;;5.80;3.00;;;;;;;13.44;41.43;98676.97;8285922;28;20214;-67
2021/10/24 16:49:30;;;;;;;5.93;2.77;;;;;;;13.30;41.36;98675.81;8285225;28;20204;-67
2021/10/24 16:53:34;;;;;;;5.10;2.70;;;;;;;13.04;42.23;98674.34;8285424;28;20205;-68
2021/10/24 16:57:39;;;;;;;5.37;2.50;;;;;;;13.24;41.89;98670.03;8285471;28;20209;-67
2021/10/24 17:01:42;;;;;;;8.20;3.50;;;;;;;13.46;41.69;98675.13;8285013;28;20233;-67
2021/10/24 17:05:46;;;;;;;6.17;3.90;;;;;;;13.18;42.39;98678.09;8285077;28;20248;-67
2021/10/24 17:09:55;;;;;;;7.37;4.80;;;;;;;13.41;42.31;98680.56;8284863;28;20217;-67
2021/10/24 17:13:58;;;;;;;13.53;8.47;;;;;;;13.38;42.19;98685.06;8284205;28;20313;-67
2021/10/24 17:18:01;;;;;;;15.20;10.57;;;;;;;13.29;42.37;98692.31;8283791;28;20258;-67
2021/10/24 17:22:05;;;;;;;18.07;10.87;;;;;;;13.09;42.40;98687.13;8283538;28;20225;-67
2021/10/24 17:26:09;;;;;;;9.47;7.17;;;;;;;13.18;42.40;98696.31;8284379;28;20201;-67
2021/10/24 17:30:12;;;;;;;10.33;7.07;;;;;;;13.15;42.67;98694.66;8284917;28;20201;-67
2021/10/24 17:34:15;;;;;;;10.30;6.10;;;;;;;13.08;43.03;98695.88;8284464;28;20217;-67
2021/10/24 17:38:19;;;;;;;9.67;5.93;;;;;;;13.07;43.60;98696.75;8284434;28;20224;-68
2021/10/24 17:42:23;;;;;;;8.97;6.27;;;;;;;13.08;43.06;98693.28;8284261;28;20233;-67
2021/10/24 17:46:26;;;;;;;12.17;7.90;;;;;;;12.84;43.45;98693.38;8284363;28;20213;-68
2021/10/24 17:50:29;;;;;;;28.47;20.13;;;;;;;12.94;43.63;98698.19;8284220;28;20202;-67
2021/10/24 17:54:32;;;;;;;13.63;8.20;;;;;;;12.91;43.51;98694.81;8284319;28;20397;-67
2021/10/24 17:58:36;;;;;;;11.30;8.53;;;;;;;12.94;43.84;98695.59;8284245;28;20201;-68
2021/10/24 18:02:40;;;;;;;8.50;6.70;;;;;;;12.86;43.79;98682.94;8283845;28;20547;-68
2021/10/24 18:06:43;;;;;;;12.20;7.20;;;;;;;12.80;44.19;98688.38;8284021;28;20261;-69
2021/10/24 18:10:47;;;;;;;12.23;7.20;;;;;;;12.75;43.96;98682.53;8284156;28;20217;-69
2021/10/24 18:14:51;;;;;;;44.70;13.40;;;;;;;13.34;59.62;98688.72;8283608;28;20210;-74
2021/10/24 18:18:54;;;;;;;18.67;8.97;;;;;;;14.34;47.70;98681.50;8283968;28;20208;-74
2021/10/24 18:22:57;;;;;;;10.93;6.40;;;;;;;14.61;42.20;98684.56;8283755;28;20532;-68
2021/10/24 18:27:01;;;;;;;9.10;6.33;;;;;;;13.50;42.77;98684.53;8283681;28;20205;-68
2021/10/24 18:31:05;;;;;;;9.90;5.67;;;;;;;13.24;43.40;98673.47;8283653;28;20228;-68
2021/10/24 18:35:08;;;;;;;11.57;6.80;;;;;;;13.04;43.76;98676.94;8286736;28;20205;-69
2021/10/24 18:39:11;;;;;;;9.10;6.93;;;;;;;12.88;44.28;98678.50;8289633;28;20202;-69
2021/10/24 18:43:14;;;;;;;12.03;7.30;;;;;;;12.75;44.66;98664.34;8289486;28;20225;-70
2021/10/24 18:47:20;;;;;;;11.00;7.00;;;;;;;12.70;44.36;98667.97;8289495;28;20488;-68
2021/10/24 18:51:22;;;;;;;10.30;7.03;;;;;;;12.45;45.04;98660.34;8289554;28;20212;-69
2021/10/24 18:55:26;;;;;;;11.00;6.60;;;;;;;12.43;45.43;98664.78;8289028;28;20206;-68
2021/10/24 18:59:29;;;;;;;9.63;7.60;;;;;;;12.40;45.57;98654.50;8288926;28;20240;-68
2021/10/24 19:03:34;;;;;;;8.93;6.60;;;;;;;12.25;45.74;98649.94;8288776;28;20230;-68
2021/10/24 19:07:38;;;;;;;17.70;13.33;;;;;;;12.27;45.83;98640.31;8287880;28;20237;-69
2021/10/24 19:11:41;;;;;;;13.27;8.47;;;;;;;12.25;45.74;98639.53;8285579;28;20198;-68
2021/10/24 19:15:44;;;;;;;19.53;15.27;;;;;;;11.95;46.24;98634.66;8287835;28;20218;-68
2021/10/24 19:19:48;;;;;;;18.87;15.07;;;;;;;12.13;46.06;98646.06;8287678;28;20198;-68
2021/10/24 19:23:51;;;;;;;12.77;8.30;;;;;;;11.98;46.34;98647.53;8287577;28;20218;-68